Thomaston, Maine
Current Conditions -  °F | °C
As of 10:55 PM on Friday 24 Oct 2014 (Local Time) from KRKD Reporting Station
Overcast Overcast  
Wind Chill: 42°   Ceiling: 1600
Heat Index: 45°   Visibility: 5mi
Dew Point: 43°   Wind: 5mph
Humidity: 93%   Direction: 320°NW
Pressure: 29.67"   Gusts: NA
Location:  44.08°N, 69.18°W
Report Text: KRKD 250255Z AUTO 32004KT 5SM SCT010 BKN016 OVC025 07/06 A2967 RMK AO1 60006 52007
Loading
Personal Weather Stations






























Interactive Weather Map
Tropical Storm Tracking
New forecast layout! Learn more

10-Day Weather Forecast

Advertisements
Track Severe Weather on mobile